Time;durP1;ratioP1;P1;durP2;ratioP2;P2;SDS_P1;SDS_P2;PMS_P1;PMS_P2;Temp;Humidity;BMP_temperature;BMP_pressure;BME280_temperature;BME280_humidity;BME280_pressure;Samples;Min_cycle;Max_cycle;Signal;HPM_P1;HPM_P2
2023/04/06 00:00:15;;;;;;;6.50;5.80;;;;;;;;;;517716;28;1112;-76
2023/04/06 00:00:33;;;;;;;6.65;5.55;;;;;;;;;;516465;28;953;-78
2023/04/06 00:00:49;;;;;;;6.47;5.50;;;;;;;;;;514940;28;1378;-76
2023/04/06 00:01:16;;;;;;;7.00;5.70;;;;;;;;;;517862;28;1091;-77
2023/04/06 00:01:52;;;;;;;7.70;6.32;;;;;;;;;;516463;28;1178;-77
2023/04/06 00:02:07;;;;;;;7.55;6.50;;;;;;;;;;514842;28;1233;-77
2023/04/06 00:02:26;;;;;;;7.17;6.47;;;;;;;;;;515463;28;1443;-78
2023/04/06 00:02:41;;;;;;;7.10;6.40;;;;;;;;;;517783;28;1033;-77
2023/04/06 00:02:57;;;;;;;7.63;6.37;;;;;;;;;;515118;28;1213;-76
2023/04/06 00:03:12;;;;;;;7.10;6.27;;;;;;;;;;517740;28;1093;-76
2023/04/06 00:03:27;;;;;;;6.82;6.15;;;;;;;;;;519946;27;1164;-78
2023/04/06 00:03:43;;;;;;;7.07;6.37;;;;;;;;;;519787;28;1251;-77
2023/04/06 00:04:03;;;;;;;7.50;6.70;;;;;;;;;;519121;28;1100;-79
2023/04/06 00:04:19;;;;;;;8.20;6.60;;;;;;;;;;517940;28;1216;-77
2023/04/06 00:04:35;;;;;;;7.45;6.47;;;;;;;;;;513691;28;1223;-77
2023/04/06 00:04:50;;;;;;;6.77;6.10;;;;;;;;;;513161;28;1327;-77
2023/04/06 00:05:05;;;;;;;6.50;5.90;;;;;;;;;;510282;28;1144;-77
2023/04/06 00:05:22;;;;;;;6.30;5.70;;;;;;;;;;512058;28;1041;-77
2023/04/06 00:05:38;;;;;;;6.22;5.63;;;;;;;;;;514146;28;1222;-77
2023/04/06 00:05:56;;;;;;;6.47;5.77;;;;;;;;;;514894;28;934;-77
2023/04/06 00:06:15;;;;;;;6.70;6.00;;;;;;;;;;518728;28;941;-77
2023/04/06 00:06:33;;;;;;;7.40;6.60;;;;;;;;;;515923;27;1090;-76
2023/04/06 00:06:55;;;;;;;7.53;6.25;;;;;;;;;;514318;28;1271;-78
2023/04/06 00:07:10;;;;;;;7.32;6.00;;;;;;;;;;515523;28;1147;-77
2023/04/06 00:07:29;;;;;;;7.13;6.17;;;;;;;;;;515947;28;925;-77
2023/04/06 00:07:45;;;;;;;7.70;6.43;;;;;;;;;;514041;28;1355;-77
2023/04/06 00:08:03;;;;;;;6.95;6.18;;;;;;;;;;515850;28;1052;-78
2023/04/06 00:08:18;;;;;;;6.85;5.85;;;;;;;;;;516548;28;1132;-76
2023/04/06 00:08:34;;;;;;;6.77;6.07;;;;;;;;;;513184;28;1512;-76
2023/04/06 00:08:50;;;;;;;6.70;6.10;;;;;;;;;;512164;28;1384;-77
2023/04/06 00:09:08;;;;;;;6.85;6.18;;;;;;;;;;514761;28;1323;-77
2023/04/06 00:09:32;;;;;;;7.20;6.30;;;;;;;;;;513015;28;1290;-77
2023/04/06 00:09:51;;;;;;;7.55;6.60;;;;;;;;;;511793;28;1342;-77
2023/04/06 00:10:06;;;;;;;7.65;6.60;;;;;;;;;;510445;28;1481;-77
2023/04/06 00:10:22;;;;;;;7.90;6.80;;;;;;;;;;513892;28;1275;-77
2023/04/06 00:10:53;;;;;;;7.60;6.80;;;;;;;;;;509876;28;1419;-78
2023/04/06 00:11:08;;;;;;;7.35;6.32;;;;;;;;;;508333;28;1111;-77
2023/04/06 00:11:24;;;;;;;6.97;6.28;;;;;;;;;;511472;28;1272;-76
2023/04/06 00:11:40;;;;;;;8.00;6.30;;;;;;;;;;511256;28;1327;-78
2023/04/06 00:12:15;;;;;;;8.50;6.57;;;;;;;;;;512184;28;1934;-78
2023/04/06 00:12:31;;;;;;;6.88;6.20;;;;;;;;;;515351;28;1532;-77
2023/04/06 00:12:46;;;;;;;6.40;5.80;;;;;;;;;;510987;28;1140;-76
2023/04/06 00:13:02;;;;;;;6.67;6.00;;;;;;;;;;511374;28;1129;-76
2023/04/06 00:13:17;;;;;;;7.28;6.22;;;;;;;;;;515612;28;1273;-77
2023/04/06 00:13:32;;;;;;;7.10;6.00;;;;;;;;;;512187;28;1295;-73
2023/04/06 00:13:56;;;;;;;7.35;6.18;;;;;;;;;;516179;28;1203;-76
2023/04/06 00:14:11;;;;;;;7.82;6.80;;;;;;;;;;515282;28;1377;-77
2023/04/06 00:14:29;;;;;;;7.20;6.50;;;;;;;;;;513481;28;1269;-77
2023/04/06 00:14:48;;;;;;;6.60;6.00;;;;;;;;;;513629;28;1360;-77
2023/04/06 00:15:05;;;;;;;6.85;6.15;;;;;;;;;;514714;28;1176;-77
2023/04/06 00:15:20;;;;;;;7.00;6.30;;;;;;;;;;513872;28;1301;-77
2023/04/06 00:15:36;;;;;;;7.07;6.23;;;;;;;;;;513809;28;1259;-76
2023/04/06 00:16:34;;;;;;;7.07;6.10;;;;;;;;;;515370;28;1107;-78
2023/04/06 00:16:41;;;;;;;7.32;6.45;;;;;;;;;;512612;28;886;-77
2023/04/06 00:16:57;;;;;;;6.85;6.20;;;;;;;;;;516071;28;1159;-78
2023/04/06 00:17:13;;;;;;;6.55;5.95;;;;;;;;;;519513;27;1119;-77
2023/04/06 00:17:31;;;;;;;6.60;5.90;;;;;;;;;;520057;27;1130;-77
2023/04/06 00:18:06;;;;;;;7.45;5.95;;;;;;;;;;519022;27;1283;-77
2023/04/06 00:18:26;;;;;;;6.63;5.90;;;;;;;;;;519829;27;1117;-77
2023/04/06 00:18:44;;;;;;;6.90;6.10;;;;;;;;;;520258;27;981;-77
2023/04/06 00:19:03;;;;;;;6.72;5.82;;;;;;;;;;512589;28;986;-77
2023/04/06 00:19:26;;;;;;;6.53;5.80;;;;;;;;;;520596;27;1146;-77
2023/04/06 00:19:41;;;;;;;6.38;5.75;;;;;;;;;;520287;27;1149;-78
2023/04/06 00:19:59;;;;;;;6.40;5.80;;;;;;;;;;521577;27;1095;-77
2023/04/06 00:20:15;;;;;;;6.70;6.00;;;;;;;;;;521795;27;1144;-76
2023/04/06 00:21:14;;;;;;;6.65;5.95;;;;;;;;;;513019;28;1482;-79
2023/04/06 00:21:16;;;;;;;7.75;6.03;;;;;;;;;;519068;27;1124;-77
2023/04/06 00:21:30;;;;;;;6.80;6.07;;;;;;;;;;515559;28;1424;-76
2023/04/06 00:21:46;;;;;;;7.38;6.32;;;;;;;;;;515833;28;1344;-77
2023/04/06 00:22:02;;;;;;;6.95;5.93;;;;;;;;;;513945;28;1133;-77
2023/04/06 00:22:20;;;;;;;6.60;5.75;;;;;;;;;;512597;28;951;-77
2023/04/06 00:22:35;;;;;;;8.18;6.05;;;;;;;;;;511391;28;958;-78
2023/04/06 00:22:51;;;;;;;8.75;6.10;;;;;;;;;;510502;28;1288;-77
2023/04/06 00:23:06;;;;;;;7.33;5.90;;;;;;;;;;510278;28;1141;-77
2023/04/06 00:23:22;;;;;;;7.25;6.13;;;;;;;;;;514138;28;1119;-77
2023/04/06 00:23:41;;;;;;;7.00;6.10;;;;;;;;;;513101;28;1660;-77
2023/04/06 00:23:56;;;;;;;7.32;5.82;;;;;;;;;;512537;28;1212;-76
2023/04/06 00:24:12;;;;;;;8.10;5.93;;;;;;;;;;515856;28;1544;-77
2023/04/06 00:24:30;;;;;;;7.47;5.90;;;;;;;;;;515583;28;1267;-77
2023/04/06 00:24:45;;;;;;;7.00;6.22;;;;;;;;;;513940;28;974;-77
2023/04/06 00:25:01;;;;;;;7.43;6.32;;;;;;;;;;510682;28;1329;-76
2023/04/06 00:25:16;;;;;;;7.50;6.20;;;;;;;;;;511683;28;1303;-77
2023/04/06 00:25:35;;;;;;;7.20;6.05;;;;;;;;;;511676;28;1259;-76
2023/04/06 00:25:50;;;;;;;7.10;5.68;;;;;;;;;;509597;28;1069;-77
2023/04/06 00:26:06;;;;;;;7.57;5.90;;;;;;;;;;511256;28;967;-79
2023/04/06 00:26:30;;;;;;;7.83;6.00;;;;;;;;;;513266;28;1005;-76
2023/04/06 00:26:46;;;;;;;9.55;5.93;;;;;;;;;;512836;28;1081;-77
2023/04/06 00:27:02;;;;;;;7.53;5.70;;;;;;;;;;515015;28;1066;-77
2023/04/06 00:27:20;;;;;;;6.53;5.80;;;;;;;;;;517369;27;1152;-77
2023/04/06 00:27:35;;;;;;;7.70;5.97;;;;;;;;;;515892;27;1444;-77
2023/04/06 00:27:51;;;;;;;7.32;5.90;;;;;;;;;;517355;27;1307;-77
2023/04/06 00:28:06;;;;;;;6.70;6.00;;;;;;;;;;516485;28;1218;-77
2023/04/06 00:28:25;;;;;;;7.30;6.20;;;;;;;;;;516646;28;992;-75
2023/04/06 00:28:44;;;;;;;7.05;5.75;;;;;;;;;;516506;28;1065;-76
2023/04/06 00:29:05;;;;;;;6.43;5.72;;;;;;;;;;514122;28;1505;-77
2023/04/06 00:29:21;;;;;;;7.15;5.53;;;;;;;;;;516256;28;1352;-77
2023/04/06 00:29:36;;;;;;;6.90;5.30;;;;;;;;;;515066;28;926;-76
2023/04/06 00:29:52;;;;;;;5.97;5.38;;;;;;;;;;517685;28;989;-76
2023/04/06 00:30:08;;;;;;;6.35;5.65;;;;;;;;;;519301;27;1214;-76
2023/04/06 00:30:24;;;;;;;6.97;5.80;;;;;;;;;;517897;28;1104;-76
2023/04/06 00:30:43;;;;;;;6.85;5.75;;;;;;;;;;515683;28;1241;-77
2023/04/06 00:31:01;;;;;;;6.40;5.60;;;;;;;;;;514010;28;1239;-78
2023/04/06 00:31:25;;;;;;;6.65;5.72;;;;;;;;;;514561;28;1430;-77
2023/04/06 00:31:41;;;;;;;6.95;5.65;;;;;;;;;;514158;28;982;-79
2023/04/06 00:31:57;;;;;;;6.57;5.60;;;;;;;;;;515441;28;1923;-77
2023/04/06 00:32:12;;;;;;;7.10;5.30;;;;;;;;;;515759;28;1087;-77
2023/04/06 00:32:31;;;;;;;7.20;5.60;;;;;;;;;;516063;28;1009;-77
2023/04/06 00:32:49;;;;;;;6.80;5.45;;;;;;;;;;515122;28;1343;-77
2023/04/06 00:33:05;;;;;;;7.82;5.82;;;;;;;;;;515817;28;1259;-77
2023/04/06 00:33:24;;;;;;;7.43;6.10;;;;;;;;;;514463;28;1532;-77
2023/04/06 00:33:44;;;;;;;6.47;5.55;;;;;;;;;;513786;28;1173;-77
2023/04/06 00:34:00;;;;;;;6.25;5.40;;;;;;;;;;513203;28;1084;-77
2023/04/06 00:34:16;;;;;;;6.30;5.60;;;;;;;;;;512177;28;1418;-78
2023/04/06 00:34:31;;;;;;;6.70;5.70;;;;;;;;;;512761;28;1133;-77
2023/04/06 00:34:49;;;;;;;7.03;5.40;;;;;;;;;;514123;28;1118;-76
2023/04/06 00:35:05;;;;;;;6.20;5.20;;;;;;;;;;513024;28;1389;-78
2023/04/06 00:35:20;;;;;;;6.15;5.30;;;;;;;;;;515214;28;1281;-77
2023/04/06 00:35:38;;;;;;;6.50;5.18;;;;;;;;;;514701;28;1043;-77
2023/04/06 00:36:15;;;;;;;6.38;5.20;;;;;;;;;;512805;28;1952;-77
2023/04/06 00:36:32;;;;;;;7.30;5.40;;;;;;;;;;515072;28;1523;-76
2023/04/06 00:36:48;;;;;;;7.38;5.60;;;;;;;;;;514157;28;1442;-76
2023/04/06 00:37:03;;;;;;;8.00;5.60;;;;;;;;;;516862;28;1235;-77
2023/04/06 00:37:24;;;;;;;7.73;5.67;;;;;;;;;;517204;28;1254;-77
2023/04/06 00:37:40;;;;;;;6.38;5.50;;;;;;;;;;516019;28;1046;-77
2023/04/06 00:37:56;;;;;;;5.90;5.20;;;;;;;;;;512775;28;1242;-76
2023/04/06 00:38:11;;;;;;;5.78;5.00;;;;;;;;;;510742;28;1294;-77
2023/04/06 00:38:27;;;;;;;5.78;5.18;;;;;;;;;;508157;28;1451;-77
2023/04/06 00:39:03;;;;;;;6.17;5.27;;;;;;;;;;506929;28;1283;-77
2023/04/06 00:39:21;;;;;;;6.00;5.30;;;;;;;;;;509665;28;1133;-77
2023/04/06 00:39:37;;;;;;;5.97;5.38;;;;;;;;;;507787;28;1323;-76
2023/04/06 00:39:55;;;;;;;6.57;5.43;;;;;;;;;;509908;28;1132;-77
2023/04/06 00:40:10;;;;;;;7.45;5.40;;;;;;;;;;513190;28;1065;-76
2023/04/06 00:40:28;;;;;;;7.82;5.50;;;;;;;;;;515483;28;920;-76
2023/04/06 00:40:46;;;;;;;8.38;5.82;;;;;;;;;;515936;28;1451;-76
2023/04/06 00:41:11;;;;;;;8.43;5.85;;;;;;;;;;515254;28;1125;-77
2023/04/06 00:41:32;;;;;;;7.85;5.70;;;;;;;;;;515954;28;1377;-79
2023/04/06 00:41:50;;;;;;;9.15;6.00;;;;;;;;;;514420;28;1629;-78
2023/04/06 00:42:08;;;;;;;8.75;5.90;;;;;;;;;;515224;28;1134;-78
2023/04/06 00:42:27;;;;;;;7.22;5.78;;;;;;;;;;514644;28;931;-77
2023/04/06 00:42:42;;;;;;;7.13;5.75;;;;;;;;;;515647;28;1529;-78
2023/04/06 00:42:58;;;;;;;6.27;5.50;;;;;;;;;;515077;28;1792;-78
2023/04/06 00:43:24;;;;;;;5.80;5.20;;;;;;;;;;515609;28;1156;-77
2023/04/06 00:43:42;;;;;;;7.50;5.35;;;;;;;;;;517569;27;912;-77
2023/04/06 00:44:00;;;;;;;6.82;5.57;;;;;;;;;;517767;27;1040;-77
2023/04/06 00:44:16;;;;;;;7.03;5.72;;;;;;;;;;519252;27;1084;-78
2023/04/06 00:44:31;;;;;;;8.07;5.72;;;;;;;;;;519092;27;1075;-78
2023/04/06 00:44:50;;;;;;;9.00;5.87;;;;;;;;;;519645;27;1116;-78
2023/04/06 00:45:05;;;;;;;8.13;5.80;;;;;;;;;;520659;27;1099;-78
2023/04/06 00:45:24;;;;;;;6.97;5.70;;;;;;;;;;519041;27;1428;-77
2023/04/06 00:45:48;;;;;;;7.20;5.70;;;;;;;;;;516883;28;1449;-77
2023/04/06 00:46:05;;;;;;;7.30;5.68;;;;;;;;;;513469;28;1189;-78
2023/04/06 00:46:20;;;;;;;6.63;5.47;;;;;;;;;;514191;28;1119;-78
2023/04/06 00:46:45;;;;;;;6.70;5.57;;;;;;;;;;512784;28;931;-78
2023/04/06 00:47:00;;;;;;;7.10;5.55;;;;;;;;;;513356;28;1294;-77
2023/04/06 00:47:15;;;;;;;7.13;5.13;;;;;;;;;;515872;28;1145;-78
2023/04/06 00:47:34;;;;;;;6.53;5.00;;;;;;;;;;516931;28;1132;-78
2023/04/06 00:47:49;;;;;;;5.90;5.18;;;;;;;;;;515211;28;1045;-77
2023/04/06 00:48:05;;;;;;;6.10;5.50;;;;;;;;;;516130;28;973;-77
2023/04/06 00:48:21;;;;;;;8.13;5.80;;;;;;;;;;514644;28;1318;-77
2023/04/06 00:48:40;;;;;;;7.60;5.63;;;;;;;;;;510711;28;1453;-78
2023/04/06 00:48:56;;;;;;;6.63;5.50;;;;;;;;;;511231;28;1231;-77
2023/04/06 00:49:11;;;;;;;6.23;5.20;;;;;;;;;;513484;28;939;-77
2023/04/06 00:49:47;;;;;;;5.70;4.90;;;;;;;;;;513050;28;1262;-77
2023/04/06 00:50:05;;;;;;;5.85;5.22;;;;;;;;;;512194;28;1170;-77
2023/04/06 00:50:30;;;;;;;6.00;5.40;;;;;;;;;;513030;28;1316;-77
2023/04/06 00:50:57;;;;;;;6.15;5.55;;;;;;;;;;515886;28;982;-78
2023/04/06 00:51:12;;;;;;;6.45;5.57;;;;;;;;;;514340;28;1090;-77
2023/04/06 00:51:31;;;;;;;6.68;5.72;;;;;;;;;;514551;28;989;-77
2023/04/06 00:51:55;;;;;;;7.28;5.75;;;;;;;;;;510620;28;1329;-75
2023/04/06 00:52:11;;;;;;;5.95;5.32;;;;;;;;;;513992;28;1994;-76
2023/04/06 00:52:26;;;;;;;6.47;5.37;;;;;;;;;;513433;28;1614;-78
2023/04/06 00:53:00;;;;;;;6.70;5.70;;;;;;;;;;510582;28;1299;-77
2023/04/06 00:53:16;;;;;;;6.20;5.60;;;;;;;;;;510986;28;1061;-76
2023/04/06 00:53:31;;;;;;;7.07;5.95;;;;;;;;;;510805;28;1167;-80
2023/04/06 00:53:46;;;;;;;7.88;5.88;;;;;;;;;;512965;28;947;-77
2023/04/06 00:54:02;;;;;;;7.13;5.67;;;;;;;;;;509706;28;1168;-77
2023/04/06 00:54:27;;;;;;;6.70;5.82;;;;;;;;;;512238;28;997;-77
2023/04/06 00:54:43;;;;;;;6.93;5.65;;;;;;;;;;514869;28;1475;-78
2023/04/06 00:54:59;;;;;;;6.85;5.68;;;;;;;;;;516779;28;1305;-77
2023/04/06 00:55:20;;;;;;;5.90;5.27;;;;;;;;;;515621;28;1253;-77
2023/04/06 00:55:42;;;;;;;6.75;5.68;;;;;;;;;;512925;28;1335;-78
2023/04/06 00:56:00;;;;;;;6.65;5.70;;;;;;;;;;512161;28;1356;-77
2023/04/06 00:56:15;;;;;;;6.85;5.68;;;;;;;;;;513388;28;1175;-77
2023/04/06 00:56:31;;;;;;;6.13;5.43;;;;;;;;;;510780;28;1113;-76
2023/04/06 00:56:56;;;;;;;5.88;5.30;;;;;;;;;;508677;28;1379;-76
2023/04/06 00:57:12;;;;;;;6.30;5.50;;;;;;;;;;511143;28;1089;-77
2023/04/06 00:57:31;;;;;;;5.85;5.20;;;;;;;;;;511673;28;921;-78
2023/04/06 00:57:47;;;;;;;5.70;5.10;;;;;;;;;;513814;28;1108;-77
2023/04/06 00:58:03;;;;;;;6.50;5.80;;;;;;;;;;515784;28;1120;-77
2023/04/06 00:58:19;;;;;;;7.05;5.85;;;;;;;;;;516420;28;1093;-77
2023/04/06 00:58:37;;;;;;;6.78;5.55;;;;;;;;;;517578;27;1171;-78
2023/04/06 00:58:56;;;;;;;7.60;6.10;;;;;;;;;;517386;28;1341;-77
2023/04/06 00:59:12;;;;;;;6.95;5.85;;;;;;;;;;517820;27;1093;-77
2023/04/06 00:59:36;;;;;;;6.10;5.50;;;;;;;;;;517393;27;1078;-78
2023/04/06 00:59:52;;;;;;;6.47;5.70;;;;;;;;;;517420;27;1042;-76
2023/04/06 01:00:08;;;;;;;7.20;6.15;;;;;;;;;;515677;28;1442;-78
2023/04/06 01:00:24;;;;;;;7.55;6.32;;;;;;;;;;514180;28;950;-77
2023/04/06 01:00:39;;;;;;;7.10;6.28;;;;;;;;;;512954;28;1236;-78
2023/04/06 01:00:58;;;;;;;7.07;6.30;;;;;;;;;;513899;28;1417;-78
2023/04/06 01:01:20;;;;;;;7.13;6.20;;;;;;;;;;514909;28;1277;-78
2023/04/06 01:01:35;;;;;;;7.18;6.38;;;;;;;;;;514547;28;947;-79
2023/04/06 01:02:01;;;;;;;6.70;6.00;;;;;;;;;;512313;28;1314;-77
2023/04/06 01:02:16;;;;;;;7.55;6.57;;;;;;;;;;514519;28;2054;-77
2023/04/06 01:02:32;;;;;;;8.05;6.72;;;;;;;;;;510123;28;1398;-78
2023/04/06 01:02:47;;;;;;;8.53;6.73;;;;;;;;;;511536;28;1530;-77
2023/04/06 01:03:42;;;;;;;6.63;5.95;;;;;;;;;;507272;28;1141;-78
2023/04/06 01:03:48;;;;;;;8.20;6.72;;;;;;;;;;509622;28;1358;-77
2023/04/06 01:04:02;;;;;;;7.35;5.90;;;;;;;;;;511263;28;1794;-77
2023/04/06 01:04:18;;;;;;;6.57;5.80;;;;;;;;;;514589;28;978;-77
2023/04/06 01:04:33;;;;;;;6.33;5.73;;;;;;;;;;513702;28;1429;-78
2023/04/06 01:04:49;;;;;;;6.60;6.00;;;;;;;;;;516446;28;1393;-77
2023/04/06 01:05:04;;;;;;;6.90;6.20;;;;;;;;;;519334;28;1064;-78
2023/04/06 01:05:20;;;;;;;8.18;6.57;;;;;;;;;;516406;28;1336;-78
2023/04/06 01:05:40;;;;;;;8.52;6.70;;;;;;;;;;517507;28;940;-78
2023/04/06 01:05:58;;;;;;;7.50;6.40;;;;;;;;;;514815;28;1564;-78
2023/04/06 01:06:14;;;;;;;7.15;6.43;;;;;;;;;;513066;28;1014;-77
2023/04/06 01:06:29;;;;;;;7.15;6.35;;;;;;;;;;513599;28;1148;-77
2023/04/06 01:07:06;;;;;;;7.10;6.40;;;;;;;;;;513802;28;1184;-78
2023/04/06 01:07:26;;;;;;;8.43;6.80;;;;;;;;;;514590;28;1158;-78
2023/04/06 01:07:42;;;;;;;8.32;6.97;;;;;;;;;;515922;28;1093;-78
2023/04/06 01:08:01;;;;;;;8.77;7.25;;;;;;;;;;516876;27;1081;-77
2023/04/06 01:08:16;;;;;;;8.68;7.30;;;;;;;;;;519541;27;989;-77
2023/04/06 01:08:32;;;;;;;9.00;7.25;;;;;;;;;;519242;27;1098;-78
2023/04/06 01:08:47;;;;;;;8.63;6.93;;;;;;;;;;519883;27;1151;-79
2023/04/06 01:09:05;;;;;;;8.27;7.10;;;;;;;;;;519068;27;1083;-77
2023/04/06 01:09:21;;;;;;;9.35;7.50;;;;;;;;;;520315;27;1131;-77
2023/04/06 01:09:41;;;;;;;8.23;7.20;;;;;;;;;;515878;27;1318;-77
2023/04/06 01:10:00;;;;;;;7.28;6.50;;;;;;;;;;513498;28;1502;-77
2023/04/06 01:10:31;;;;;;;7.80;6.95;;;;;;;;;;515241;28;1272;-77
2023/04/06 01:10:50;;;;;;;7.57;6.72;;;;;;;;;;512088;28;1013;-77
2023/04/06 01:11:05;;;;;;;8.40;6.50;;;;;;;;;;512148;28;1354;-77
2023/04/06 01:11:23;;;;;;;9.00;7.17;;;;;;;;;;513477;28;1338;-77
2023/04/06 01:11:39;;;;;;;8.23;7.40;;;;;;;;;;511694;28;1364;-76
2023/04/06 01:11:58;;;;;;;8.47;7.50;;;;;;;;;;513484;28;930;-77
2023/04/06 01:12:13;;;;;;;8.50;7.13;;;;;;;;;;514212;28;1271;-79
2023/04/06 01:12:31;;;;;;;8.50;7.07;;;;;;;;;;512347;28;1289;-77
2023/04/06 01:12:50;;;;;;;8.32;7.28;;;;;;;;;;512592;28;1012;-78
2023/04/06 01:13:07;;;;;;;8.30;7.35;;;;;;;;;;512273;28;1732;-77
2023/04/06 01:13:22;;;;;;;8.50;7.50;;;;;;;;;;510730;28;1504;-77
2023/04/06 01:13:41;;;;;;;8.30;7.40;;;;;;;;;;511501;28;1281;-77
2023/04/06 01:13:56;;;;;;;9.02;7.55;;;;;;;;;;510958;28;1041;-77
2023/04/06 01:14:12;;;;;;;8.43;7.43;;;;;;;;;;510203;28;1492;-77
2023/04/06 01:14:27;;;;;;;8.67;7.60;;;;;;;;;;511221;28;912;-77
2023/04/06 01:14:54;;;;;;;8.46;7.56;;;;;;;;;;451756;28;10001098;-77
2023/04/06 01:16:09;;;;;;;8.43;7.53;;;;;;;;;;514450;28;1097;-78
2023/04/06 01:16:27;;;;;;;8.80;7.50;;;;;;;;;;511559;28;1398;-76
2023/04/06 01:16:43;;;;;;;8.63;7.50;;;;;;;;;;509874;28;1617;-75
2023/04/06 01:17:06;;;;;;;8.70;7.70;;;;;;;;;;514950;28;1262;-76
2023/04/06 01:17:21;;;;;;;8.32;7.40;;;;;;;;;;515031;28;1155;-77
2023/04/06 01:17:40;;;;;;;8.38;7.30;;;;;;;;;;513933;28;1068;-77
2023/04/06 01:18:06;;;;;;;8.10;7.30;;;;;;;;;;511839;28;1522;-76
2023/04/06 01:18:44;;;;;;;8.07;7.28;;;;;;;;;;512475;28;1471;-77
2023/04/06 01:19:09;;;;;;;7.90;7.10;;;;;;;;;;512856;28;1408;-77
2023/04/06 01:19:35;;;;;;;8.05;7.22;;;;;;;;;;513286;28;1313;-77
2023/04/06 01:19:53;;;;;;;9.35;7.57;;;;;;;;;;513472;28;1425;-78
2023/04/06 01:20:09;;;;;;;9.15;7.60;;;;;;;;;;508044;28;1205;-78
2023/04/06 01:20:31;;;;;;;8.57;7.50;;;;;;;;;;511132;28;1258;-78
2023/04/06 01:20:47;;;;;;;9.52;7.25;;;;;;;;;;512853;28;1161;-78
2023/04/06 01:21:15;;;;;;;8.90;7.20;;;;;;;;;;511221;28;1239;-76
2023/04/06 01:21:31;;;;;;;8.18;7.28;;;;;;;;;;509064;28;1486;-76
2023/04/06 01:21:49;;;;;;;7.88;7.00;;;;;;;;;;508456;28;1069;-77
2023/04/06 01:22:05;;;;;;;8.57;7.60;;;;;;;;;;508689;28;1478;-76
2023/04/06 01:22:20;;;;;;;9.45;7.68;;;;;;;;;;508980;28;1398;-77
2023/04/06 01:22:36;;;;;;;8.93;7.40;;;;;;;;;;510660;28;1388;-77
2023/04/06 01:23:00;;;;;;;8.50;7.60;;;;;;;;;;508491;28;1070;-76
2023/04/06 01:23:32;;;;;;;9.65;7.40;;;;;;;;;;509832;28;1263;-77
2023/04/06 01:23:50;;;;;;;9.35;7.80;;;;;;;;;;511838;28;1296;-77
2023/04/06 01:24:06;;;;;;;8.95;7.90;;;;;;;;;;510781;28;1347;-77
2023/04/06 01:24:21;;;;;;;8.88;7.75;;;;;;;;;;511382;28;1313;-77
2023/04/06 01:24:37;;;;;;;9.23;7.82;;;;;;;;;;510696;28;1235;-77
2023/04/06 01:24:58;;;;;;;8.83;7.60;;;;;;;;;;510644;28;1327;-78
2023/04/06 01:25:14;;;;;;;8.50;7.20;;;;;;;;;;513536;28;1282;-77
2023/04/06 01:25:32;;;;;;;7.80;7.00;;;;;;;;;;513143;28;1292;-77
2023/04/06 01:25:50;;;;;;;9.35;7.38;;;;;;;;;;512739;28;1592;-77
2023/04/06 01:26:05;;;;;;;8.98;7.50;;;;;;;;;;512339;28;1137;-77
2023/04/06 01:26:21;;;;;;;8.30;7.50;;;;;;;;;;511600;28;1203;-78
2023/04/06 01:27:19;;;;;;;8.30;7.43;;;;;;;;;;506627;28;953;-78
2023/04/06 01:27:20;;;;;;;8.17;7.37;;;;;;;;;;509418;28;1268;-77
2023/04/06 01:27:40;;;;;;;8.60;7.45;;;;;;;;;;512181;28;1437;-77
2023/04/06 01:27:55;;;;;;;8.25;7.32;;;;;;;;;;511013;28;1578;-78
2023/04/06 01:28:11;;;;;;;8.63;7.50;;;;;;;;;;510760;28;1291;-77
2023/04/06 01:28:29;;;;;;;8.27;7.37;;;;;;;;;;513755;28;1328;-78
2023/04/06 01:28:45;;;;;;;8.10;7.30;;;;;;;;;;514569;28;966;-78
2023/04/06 01:29:01;;;;;;;8.68;7.78;;;;;;;;;;513608;28;981;-77
2023/04/06 01:29:20;;;;;;;8.95;8.00;;;;;;;;;;512315;28;1274;-77
2023/04/06 01:29:35;;;;;;;9.20;7.75;;;;;;;;;;512644;28;953;-77
2023/04/06 01:29:51;;;;;;;8.38;7.47;;;;;;;;;;513572;28;1136;-77
2023/04/06 01:30:07;;;;;;;8.33;7.53;;;;;;;;;;514668;28;1496;-78
2023/04/06 01:30:26;;;;;;;8.40;7.50;;;;;;;;;;514488;28;1446;-77
2023/04/06 01:30:50;;;;;;;8.95;7.53;;;;;;;;;;512392;28;1535;-77
2023/04/06 01:31:07;;;;;;;8.52;7.57;;;;;;;;;;513586;28;1386;-77
2023/04/06 01:31:22;;;;;;;8.43;7.55;;;;;;;;;;514086;28;1379;-78
2023/04/06 01:31:38;;;;;;;9.70;7.87;;;;;;;;;;514027;28;1414;-77
2023/04/06 01:31:57;;;;;;;9.07;7.53;;;;;;;;;;513021;28;1307;-77
2023/04/06 01:32:12;;;;;;;8.40;7.60;;;;;;;;;;513581;28;1969;-78
2023/04/06 01:32:28;;;;;;;8.83;7.90;;;;;;;;;;512519;28;1428;-77
2023/04/06 01:32:44;;;;;;;9.18;7.90;;;;;;;;;;511545;28;1361;-78
2023/04/06 01:33:06;;;;;;;8.63;7.53;;;;;;;;;;512520;28;1275;-77
2023/04/06 01:33:24;;;;;;;8.55;7.68;;;;;;;;;;509334;28;1346;-78
2023/04/06 01:33:40;;;;;;;8.82;7.90;;;;;;;;;;508786;28;1587;-77
2023/04/06 01:33:58;;;;;;;8.77;7.80;;;;;;;;;;509232;28;1240;-77
2023/04/06 01:34:14;;;;;;;8.32;7.53;;;;;;;;;;510767;28;1113;-77
2023/04/06 01:34:30;;;;;;;8.20;7.40;;;;;;;;;;512312;28;1382;-78
2023/04/06 01:34:51;;;;;;;8.80;7.90;;;;;;;;;;513917;28;1133;-77
2023/04/06 01:35:06;;;;;;;8.85;8.05;;;;;;;;;;516505;28;949;-78
2023/04/06 01:35:22;;;;;;;9.00;8.10;;;;;;;;;;514299;28;1210;-78
2023/04/06 01:35:59;;;;;;;9.15;7.82;;;;;;;;;;512853;28;1518;-77
2023/04/06 01:36:31;;;;;;;10.00;8.07;;;;;;;;;;517010;28;1154;-78
2023/04/06 01:36:52;;;;;;;9.20;7.53;;;;;;;;;;516499;28;1124;-77
2023/04/06 01:37:08;;;;;;;9.80;7.95;;;;;;;;;;515582;28;1162;-77
2023/04/06 01:37:23;;;;;;;8.77;7.90;;;;;;;;;;515739;28;1129;-75
2023/04/06 01:37:38;;;;;;;8.65;7.75;;;;;;;;;;517163;28;895;-78
2023/04/06 01:38:00;;;;;;;8.60;7.70;;;;;;;;;;516182;28;1610;-78
2023/04/06 01:38:15;;;;;;;8.40;7.50;;;;;;;;;;516040;28;1441;-76
2023/04/06 01:38:33;;;;;;;8.63;7.63;;;;;;;;;;517008;28;938;-77
2023/04/06 01:38:59;;;;;;;8.90;7.97;;;;;;;;;;514475;28;1228;-77
2023/04/06 01:39:17;;;;;;;9.48;8.25;;;;;;;;;;518397;28;958;-77
2023/04/06 01:39:36;;;;;;;8.95;8.05;;;;;;;;;;516895;28;1336;-77
2023/04/06 01:39:52;;;;;;;8.63;7.72;;;;;;;;;;513072;28;1591;-76
2023/04/06 01:40:08;;;;;;;8.32;7.53;;;;;;;;;;514112;28;1612;-76
2023/04/06 01:40:36;;;;;;;;;;;;;;;;;;;;;
2023/04/06 01:40:55;;;;;;;9.18;8.15;;;;;;;;;;515452;28;1061;-77
2023/04/06 01:41:10;;;;;;;8.63;7.60;;;;;;;;;;515906;28;1103;-78
2023/04/06 01:41:49;;;;;;;8.37;7.53;;;;;;;;;;512869;28;1207;-76
2023/04/06 01:42:04;;;;;;;9.10;7.80;;;;;;;;;;511788;28;1985;-76
2023/04/06 01:42:20;;;;;;;8.47;7.50;;;;;;;;;;510500;28;1392;-76
2023/04/06 01:42:35;;;;;;;8.43;7.60;;;;;;;;;;510775;28;944;-77
2023/04/06 01:42:51;;;;;;;8.67;7.77;;;;;;;;;;510496;28;1061;-77
2023/04/06 01:43:09;;;;;;;8.27;7.47;;;;;;;;;;510037;28;1149;-76
2023/04/06 01:43:27;;;;;;;8.20;7.40;;;;;;;;;;512771;28;970;-76
2023/04/06 01:43:49;;;;;;;8.88;7.68;;;;;;;;;;512500;28;1053;-76
2023/04/06 01:44:05;;;;;;;9.07;8.00;;;;;;;;;;515264;28;1123;-77
2023/04/06 01:44:20;;;;;;;9.77;8.23;;;;;;;;;;518556;28;1416;-77
2023/04/06 01:44:36;;;;;;;9.30;8.07;;;;;;;;;;515567;28;1394;-77
2023/04/06 01:44:55;;;;;;;9.27;8.07;;;;;;;;;;515180;28;1385;-78
2023/04/06 01:45:10;;;;;;;8.95;7.78;;;;;;;;;;515324;28;1235;-76
2023/04/06 01:45:25;;;;;;;8.77;7.90;;;;;;;;;;514661;28;1080;-77
2023/04/06 01:45:50;;;;;;;8.68;7.82;;;;;;;;;;514049;28;1234;-76
2023/04/06 01:46:06;;;;;;;8.73;7.65;;;;;;;;;;515025;28;1462;-77
2023/04/06 01:46:30;;;;;;;8.10;7.30;;;;;;;;;;515368;28;1334;-76
2023/04/06 01:46:49;;;;;;;8.98;7.90;;;;;;;;;;514644;28;1373;-76
2023/04/06 01:47:04;;;;;;;9.60;7.93;;;;;;;;;;512367;28;1371;-76
2023/04/06 01:47:20;;;;;;;9.02;7.95;;;;;;;;;;511476;28;1417;-76
2023/04/06 01:47:35;;;;;;;8.60;7.50;;;;;;;;;;512302;28;1009;-76
2023/04/06 01:47:51;;;;;;;8.90;7.57;;;;;;;;;;510066;28;1438;-78
2023/04/06 01:48:07;;;;;;;9.00;7.80;;;;;;;;;;513855;28;1450;-76
2023/04/06 01:48:25;;;;;;;8.88;7.97;;;;;;;;;;513598;28;1560;-76
2023/04/06 01:48:44;;;;;;;8.70;7.80;;;;;;;;;;512195;28;1391;-77
2023/04/06 01:49:00;;;;;;;8.88;7.97;;;;;;;;;;511151;28;1629;-77
2023/04/06 01:49:41;;;;;;;8.97;8.07;;;;;;;;;;513848;28;1142;-77
2023/04/06 01:50:05;;;;;;;9.07;8.02;;;;;;;;;;511362;28;1212;-77
2023/04/06 01:50:21;;;;;;;9.30;8.30;;;;;;;;;;514386;28;1269;-77
2023/04/06 01:50:37;;;;;;;8.90;8.00;;;;;;;;;;514618;28;1137;-76
2023/04/06 01:50:52;;;;;;;9.13;8.23;;;;;;;;;;513009;28;1141;-78
2023/04/06 01:51:31;;;;;;;9.27;8.38;;;;;;;;;;516238;28;1496;-77
2023/04/06 01:51:49;;;;;;;9.25;8.30;;;;;;;;;;506090;28;1264;-76
2023/04/06 01:52:05;;;;;;;9.32;8.32;;;;;;;;;;506646;28;1910;-77
2023/04/06 01:52:23;;;;;;;9.80;8.32;;;;;;;;;;507189;28;1059;-76
2023/04/06 01:52:39;;;;;;;9.30;8.40;;;;;;;;;;509609;28;1285;-77
2023/04/06 01:52:58;;;;;;;9.40;8.50;;;;;;;;;;517864;27;1274;-77
2023/04/06 01:53:16;;;;;;;9.20;8.27;;;;;;;;;;518254;28;1275;-77
2023/04/06 01:53:40;;;;;;;9.25;8.30;;;;;;;;;;518689;28;1333;-76
2023/04/06 01:54:05;;;;;;;9.43;8.43;;;;;;;;;;515754;28;1171;-76
2023/04/06 01:54:20;;;;;;;9.20;8.30;;;;;;;;;;516171;28;1046;-77
2023/04/06 01:54:38;;;;;;;9.40;8.43;;;;;;;;;;515750;28;1475;-77
2023/04/06 01:54:54;;;;;;;9.65;8.63;;;;;;;;;;512871;28;1298;-76
2023/04/06 01:55:10;;;;;;;9.55;8.63;;;;;;;;;;513258;28;1220;-77
2023/04/06 01:55:25;;;;;;;9.57;8.57;;;;;;;;;;513324;28;1414;-76
2023/04/06 01:55:41;;;;;;;9.93;8.32;;;;;;;;;;512497;28;1267;-77
2023/04/06 01:56:06;;;;;;;10.23;8.57;;;;;;;;;;512097;28;1425;-78
2023/04/06 01:56:25;;;;;;;9.30;8.35;;;;;;;;;;512163;28;1419;-77
2023/04/06 01:56:51;;;;;;;9.23;8.20;;;;;;;;;;512120;28;1354;-76